Terminal Aerodrome Forecast
Issued by NWS Wilmington, NC

Home | Current Version | Previous Version | Text Only | Print | Product List | Glossary On
Versions: 1 2 3 4 5 6 7 8 9 10 11 12 13
153
FTUS42 KILM 301120
TAFFLO
TAF
KFLO 301120Z 3012/0112 19006KT P6SM OVC006
     FM301400 18010KT P6SM BKN015
     FM301800 18011KT P6SM BKN250
     FM010600 17007KT P6SM OVC015=

USA.gov is the U.S. government's official web portal to all federal, state and local government web resources and services.